Time;durP1;ratioP1;P1;durP2;ratioP2;P2;SDS_P1;SDS_P2;PMS_P1;PMS_P2;Temp;Humidity;BMP_temperature;BMP_pressure;BME280_temperature;BME280_humidity;BME280_pressure;Samples;Min_cycle;Max_cycle;Signal;HPM_P1;HPM_P2
2023/01/03 00:01:26;;;;;;;1.37;1.27;;;;;;;13.13;55.17;98919.31;8286656;28;20519;-73
2023/01/03 00:05:29;;;;;;;1.38;1.27;;;;;;;13.17;54.75;98924.31;8286280;28;20418;-74
2023/01/03 00:09:34;;;;;;;2.13;1.43;;;;;;;13.01;55.45;98931.88;8286401;28;20229;-74
2023/01/03 00:13:37;;;;;;;1.60;1.50;;;;;;;13.09;55.37;98922.00;8285955;28;20425;-74
2023/01/03 00:17:39;;;;;;;1.40;1.30;;;;;;;13.11;55.48;98901.16;8286223;28;20232;-74
2023/01/03 00:21:42;;;;;;;2.07;1.43;;;;;;;13.13;55.34;98901.09;8285539;28;20250;-73
2023/01/03 00:25:47;;;;;;;1.93;1.40;;;;;;;13.16;55.30;98888.81;8285904;28;20230;-73
2023/01/03 00:29:49;;;;;;;1.67;1.30;;;;;;;12.98;55.93;98898.19;8285892;28;20433;-74
2023/01/03 00:33:52;;;;;;;1.50;1.40;;;;;;;12.97;55.69;98893.91;8285801;28;20564;-74
2023/01/03 00:37:55;;;;;;;1.47;1.23;;;;;;;12.83;56.33;98901.38;8285745;28;20233;-74
2023/01/03 00:41:59;;;;;;;1.43;1.20;;;;;;;12.78;56.92;98909.38;8285395;28;20237;-73
2023/01/03 00:46:03;;;;;;;1.27;1.17;;;;;;;12.71;57.03;98905.31;8285387;28;20235;-73
2023/01/03 00:50:06;;;;;;;1.27;1.13;;;;;;;12.79;57.09;98920.59;8285324;28;20290;-74
2023/01/03 00:54:10;;;;;;;1.23;1.10;;;;;;;12.81;56.84;98918.78;8284578;28;20231;-74
2023/01/03 00:58:14;;;;;;;1.40;1.30;;;;;;;12.63;56.75;98928.97;8284773;28;20236;-74
2023/01/03 01:02:19;;;;;;;1.50;1.40;;;;;;;12.76;56.72;98934.56;8284600;28;20248;-74
2023/01/03 01:06:24;;;;;;;1.30;1.20;;;;;;;12.80;56.53;98943.94;8284963;28;20225;-74
2023/01/03 01:10:27;;;;;;;1.20;1.10;;;;;;;12.71;57.07;98952.94;8284601;28;20229;-74
2023/01/03 01:14:32;;;;;;;1.17;1.10;;;;;;;12.72;56.68;98948.59;8284266;28;20232;-74
2023/01/03 01:18:36;;;;;;;1.00;1.00;;;;;;;12.70;56.70;98943.44;8284240;28;20228;-74
2023/01/03 01:22:38;;;;;;;1.40;1.30;;;;;;;12.79;56.72;98957.00;8284096;28;20238;-74
2023/01/03 01:26:41;;;;;;;1.27;1.10;;;;;;;12.83;56.55;98968.97;8283570;28;20550;-72
2023/01/03 01:30:45;;;;;;;1.83;1.30;;;;;;;12.75;56.47;98978.81;8283909;28;20244;-73
2023/01/03 01:34:48;;;;;;;1.00;1.00;;;;;;;12.65;56.96;98967.91;8283711;28;20244;-74
2023/01/03 01:38:54;;;;;;;1.13;1.10;;;;;;;12.71;56.52;98965.91;8283772;28;20233;-74
2023/01/03 01:47:28;;;;;;;1.20;1.10;;;;;;;12.73;56.31;98963.28;8283518;28;20230;-75
2023/01/03 01:51:35;;;;;;;1.20;1.20;;;;;;;12.68;56.48;98958.25;8283332;28;20245;-75
2023/01/03 01:55:40;;;;;;;1.30;1.13;;;;;;;12.60;56.83;98965.47;8283194;28;20223;-74
2023/01/03 01:59:42;;;;;;;1.07;1.07;;;;;;;12.69;56.71;98967.72;8282776;28;20231;-74
2023/01/03 02:03:54;;;;;;;1.20;1.10;;;;;;;12.46;57.11;98971.19;8283169;28;20334;-75
2023/01/03 02:07:57;;;;;;;1.00;1.00;;;;;;;12.67;56.48;98979.09;8282915;28;20241;-72
2023/01/03 02:16:36;;;;;;;2.17;1.17;;;;;;;12.70;56.43;98985.03;8282991;28;20231;-75
2023/01/03 02:21:08;;;;;;;1.17;1.10;;;;;;;12.47;56.71;98987.59;8282648;28;20235;-74
2023/01/03 02:25:59;;;;;;;1.30;1.30;;;;;;;12.39;56.44;98956.69;8282327;28;20230;-74
2023/01/03 02:30:34;;;;;;;1.00;1.00;;;;;;;12.52;56.25;98989.13;8282196;28;20227;-74
2023/01/03 02:34:43;;;;;;;1.10;1.00;;;;;;;12.56;56.39;99002.03;8282360;28;20232;-74
2023/01/03 02:38:49;;;;;;;0.83;0.83;;;;;;;12.57;56.46;98995.94;8282006;28;20224;-74
2023/01/03 02:42:57;;;;;;;1.07;0.93;;;;;;;12.52;56.73;98990.88;8281775;28;20227;-74
2023/01/03 02:47:04;;;;;;;1.03;1.00;;;;;;;12.57;56.54;98994.19;8281902;28;20248;-74
2023/01/03 02:51:12;;;;;;;1.10;1.00;;;;;;;12.49;56.22;99004.00;8281911;28;20232;-75
2023/01/03 02:55:17;;;;;;;1.00;1.00;;;;;;;12.59;56.59;99012.31;8281860;28;20228;-75
2023/01/03 02:59:26;;;;;;;1.20;1.10;;;;;;;12.47;56.77;99009.25;8281861;28;20430;-74
2023/01/03 03:03:33;;;;;;;1.30;1.20;;;;;;;12.52;56.42;99012.50;8281912;28;20435;-73
2023/01/03 03:07:39;;;;;;;1.47;1.07;;;;;;;12.49;56.48;99015.25;8281488;28;20334;-74
2023/01/03 03:16:07;;;;;;;1.10;1.10;;;;;;;12.40;56.91;99005.16;8281250;28;20240;-74
2023/01/03 03:28:58;;;;;;;1.30;1.20;;;;;;;12.32;56.64;99005.44;8278574;28;20307;-74
2023/01/03 03:33:05;;;;;;;1.30;1.20;;;;;;;12.42;56.54;98999.94;8281100;28;20235;-74
2023/01/03 03:37:12;;;;;;;1.50;1.40;;;;;;;12.36;56.57;99001.00;8281072;28;20235;-74
2023/01/03 03:45:44;;;;;;;1.40;1.30;;;;;;;12.23;56.72;99000.56;8281150;28;20228;-74
2023/01/03 03:49:49;;;;;;;1.60;1.50;;;;;;;12.17;56.73;99010.31;8280433;28;20240;-74
2023/01/03 03:53:54;;;;;;;1.60;1.50;;;;;;;12.14;57.01;99013.84;8280853;28;20235;-74
2023/01/03 03:58:00;;;;;;;1.90;1.70;;;;;;;12.12;56.82;99019.09;8280635;28;20245;-74
2023/01/03 04:02:05;;;;;;;1.73;1.63;;;;;;;12.01;57.16;99021.19;8280785;28;20234;-74
2023/01/03 04:06:10;;;;;;;1.67;1.57;;;;;;;12.00;57.03;99031.66;8280757;28;20234;-74
2023/01/03 04:10:18;;;;;;;1.70;1.60;;;;;;;11.87;57.27;99020.78;8280740;28;20227;-74
2023/01/03 04:14:21;;;;;;;1.50;1.40;;;;;;;11.70;57.23;99009.22;8280440;28;20250;-74
2023/01/03 04:18:24;;;;;;;1.47;1.40;;;;;;;11.72;57.57;99024.72;8280617;28;20550;-74
2023/01/03 04:22:27;;;;;;;2.13;2.03;;;;;;;11.65;57.17;99021.50;8280361;28;20232;-74
2023/01/03 04:26:31;;;;;;;1.90;1.60;;;;;;;11.66;56.96;99030.97;8280458;28;20230;-74
2023/01/03 04:30:34;;;;;;;1.90;1.80;;;;;;;11.60;57.41;99031.16;8284976;28;20227;-74
2023/01/03 04:34:37;;;;;;;2.00;1.90;;;;;;;11.53;56.58;99034.84;8285974;28;20257;-74
2023/01/03 04:38:39;;;;;;;2.10;1.90;;;;;;;11.46;57.52;99041.97;8286016;28;20246;-73
2023/01/03 04:47:03;;;;;;;2.03;1.80;;;;;;;11.37;57.82;99050.03;8285766;28;20226;-73
2023/01/03 04:51:06;;;;;;;2.50;2.30;;;;;;;11.37;57.46;99034.47;8285788;28;20519;-73
2023/01/03 04:55:09;;;;;;;2.07;1.97;;;;;;;11.35;57.83;99041.47;8285304;28;20232;-72
2023/01/03 04:59:13;;;;;;;2.13;2.00;;;;;;;11.27;57.88;99046.88;8285494;28;20237;-72
2023/01/03 05:03:17;;;;;;;2.10;2.00;;;;;;;11.22;57.64;99042.72;8285094;28;20238;-73
2023/01/03 05:07:27;;;;;;;2.13;2.03;;;;;;;11.24;57.48;99040.94;8285290;28;20249;-73
2023/01/03 05:11:30;;;;;;;2.00;1.90;;;;;;;11.26;57.28;99047.75;8285096;28;20222;-72
2023/01/03 05:15:35;;;;;;;2.10;2.00;;;;;;;11.19;57.20;99038.44;8284940;28;20231;-73
2023/01/03 05:25:48;;;;;;;2.33;2.13;;;;;;;11.13;57.63;99054.19;8284713;28;20254;-72
2023/01/03 05:28:23;;;;;;;2.50;2.30;;;;;;;11.00;57.21;99061.47;8284561;28;20231;-73
2023/01/03 05:32:28;;;;;;;2.47;2.27;;;;;;;11.03;57.19;99070.94;8284455;28;20222;-72
2023/01/03 05:36:30;;;;;;;2.53;2.37;;;;;;;10.93;57.61;99075.53;8284289;28;20231;-73
2023/01/03 05:40:33;;;;;;;2.50;2.30;;;;;;;10.90;57.47;99079.03;8283910;28;20333;-73
2023/01/03 05:44:42;;;;;;;2.60;2.30;;;;;;;10.85;57.54;99077.47;8283585;28;20238;-72
2023/01/03 05:48:46;;;;;;;2.70;2.50;;;;;;;10.68;57.58;99078.78;8283950;28;20233;-72
2023/01/03 05:52:49;;;;;;;2.47;2.27;;;;;;;10.67;57.74;99090.03;8283782;28;20405;-72
2023/01/03 05:56:52;;;;;;;2.90;2.70;;;;;;;10.62;57.29;99091.88;8283402;28;20244;-72
2023/01/03 06:00:55;;;;;;;2.70;2.53;;;;;;;10.53;57.35;99089.56;8283594;28;20409;-72
2023/01/03 06:04:59;;;;;;;2.93;2.73;;;;;;;10.55;57.36;99088.63;8283463;28;20238;-72
2023/01/03 06:09:02;;;;;;;2.77;2.57;;;;;;;10.41;57.63;99097.63;8283265;28;20305;-73
2023/01/03 06:13:04;;;;;;;3.00;2.80;;;;;;;10.55;58.11;99100.72;8283114;28;20235;-73
2023/01/03 06:21:25;;;;;;;2.97;2.67;;;;;;;10.50;57.94;99100.00;8260612;28;20230;-72
2023/01/03 06:25:28;;;;;;;3.00;2.80;;;;;;;10.52;57.92;99106.81;8282829;28;20231;-72
2023/01/03 06:29:30;;;;;;;2.90;2.70;;;;;;;10.40;58.27;99111.47;8282907;28;20234;-73
2023/01/03 06:33:33;;;;;;;2.93;2.73;;;;;;;10.42;57.98;99099.34;8282822;28;20241;-72
2023/01/03 06:37:38;;;;;;;3.13;2.90;;;;;;;10.46;57.75;99103.56;8282329;28;20245;-72
2023/01/03 06:41:41;;;;;;;3.10;2.90;;;;;;;10.37;57.98;99108.06;8281796;28;20223;-71
2023/01/03 06:54:38;;;;;;;3.70;3.40;;;;;;;10.39;58.06;99114.94;8281867;28;20250;-72
2023/01/03 06:58:40;;;;;;;4.43;3.57;;;;;;;10.40;58.29;99112.31;8281703;28;20241;-72
2023/01/03 07:02:43;;;;;;;3.80;3.50;;;;;;;10.40;58.26;99122.69;8281364;28;20219;-71
2023/01/03 07:06:46;;;;;;;4.53;4.13;;;;;;;10.28;57.89;99123.81;8281633;28;20242;-71
2023/01/03 07:10:50;;;;;;;4.40;4.00;;;;;;;10.32;57.96;99134.97;8281396;28;20235;-71
2023/01/03 07:14:53;;;;;;;4.10;3.70;;;;;;;10.29;58.37;99130.69;8281072;28;20227;-72
2023/01/03 07:18:56;;;;;;;3.80;3.50;;;;;;;10.23;58.45;99138.59;8280971;28;20234;-72
2023/01/03 07:22:59;;;;;;;4.53;3.80;;;;;;;10.19;58.74;99144.75;8281733;28;20239;-74
2023/01/03 07:27:04;;;;;;;4.60;3.90;;;;;;;10.27;58.37;99145.41;8281118;28;20231;-74
2023/01/03 07:31:07;;;;;;;4.40;4.03;;;;;;;10.20;58.96;99151.59;8281357;28;20219;-74
2023/01/03 07:35:10;;;;;;;4.77;4.37;;;;;;;10.26;58.80;99154.06;8281080;28;20240;-74
2023/01/03 07:39:13;;;;;;;4.67;4.27;;;;;;;10.36;58.10;99167.69;8281075;28;20229;-73
2023/01/03 07:47:37;;;;;;;5.10;4.70;;;;;;;10.25;58.26;99165.31;8281173;28;20226;-73
2023/01/03 07:51:40;;;;;;;4.47;4.17;;;;;;;10.26;58.76;99179.09;8281070;28;20233;-74
2023/01/03 07:55:44;;;;;;;4.67;4.30;;;;;;;10.28;58.32;99182.50;8280435;28;20254;-73
2023/01/03 07:59:50;;;;;;;4.57;4.27;;;;;;;10.48;58.03;99189.81;8280836;28;20268;-73
2023/01/03 08:03:53;;;;;;;4.83;4.40;;;;;;;10.66;57.53;99191.09;8283201;28;20400;-74
2023/01/03 08:07:56;;;;;;;4.60;4.30;;;;;;;10.59;57.87;99189.56;8287091;28;20238;-73
2023/01/03 08:16:20;;;;;;;4.47;4.13;;;;;;;10.73;57.92;99198.66;8286954;28;20529;-74
2023/01/03 08:20:23;;;;;;;6.07;4.17;;;;;;;10.87;57.52;99200.06;8286808;28;20309;-74
2023/01/03 08:24:26;;;;;;;4.97;4.57;;;;;;;10.93;57.49;99200.78;8286471;28;20241;-76
2023/01/03 08:28:29;;;;;;;4.73;4.33;;;;;;;10.94;57.38;99193.84;8286371;28;20230;-75
2023/01/03 08:32:33;;;;;;;4.97;4.50;;;;;;;10.97;57.74;99201.53;8286447;28;20231;-74
2023/01/03 08:36:39;;;;;;;7.93;7.20;;;;;;;11.19;57.00;99200.97;8286342;28;20235;-75
2023/01/03 08:40:42;;;;;;;7.00;6.30;;;;;;;11.33;56.40;99201.44;8285794;28;20223;-75
2023/01/03 08:44:45;;;;;;;7.40;6.43;;;;;;;11.26;56.59;99202.50;8285608;28;20242;-75
2023/01/03 08:48:50;;;;;;;6.07;5.57;;;;;;;11.42;56.93;99208.09;8285828;28;20231;-75
2023/01/03 08:52:53;;;;;;;5.97;5.47;;;;;;;11.43;56.91;99204.63;8285424;28;20238;-75
2023/01/03 08:56:55;;;;;;;5.90;5.40;;;;;;;11.60;56.44;99207.59;8285490;28;20242;-74
2023/01/03 09:01:01;;;;;;;5.23;4.67;;;;;;;11.68;56.49;99216.00;8285357;28;20235;-74
2023/01/03 09:05:06;;;;;;;4.50;4.10;;;;;;;11.75;56.58;99224.47;8285580;28;20223;-74
2023/01/03 09:09:09;;;;;;;4.40;4.00;;;;;;;11.52;56.77;99212.16;8284731;28;20234;-77
2023/01/03 09:13:12;;;;;;;4.47;2.93;;;;;;;14.47;67.64;99235.97;8284581;28;20507;-75
2023/01/03 09:17:17;;;;;;;3.50;3.30;;;;;;;13.67;55.01;99235.56;8284849;28;20239;-77
2023/01/03 09:21:21;;;;;;;3.03;2.83;;;;;;;12.84;54.42;99236.69;8284270;28;20230;-77
2023/01/03 09:25:24;;;;;;;3.20;2.90;;;;;;;12.61;54.60;99241.78;8284663;28;20235;-77
2023/01/03 09:29:27;;;;;;;3.40;3.10;;;;;;;12.60;54.31;99232.28;8284450;28;20240;-76
2023/01/03 09:33:29;;;;;;;3.50;3.30;;;;;;;12.52;54.50;99242.94;8284373;28;20237;-77
2023/01/03 09:37:33;;;;;;;3.17;2.90;;;;;;;12.39;55.04;99233.81;8284135;28;20240;-77
2023/01/03 09:41:39;;;;;;;3.23;3.03;;;;;;;12.36;54.56;99242.56;8284148;28;20246;-77
2023/01/03 09:45:43;;;;;;;4.33;3.43;;;;;;;12.45;54.28;99244.00;8283887;28;20231;-76
2023/01/03 09:49:47;;;;;;;5.10;2.80;;;;;;;12.49;53.87;99253.44;8283717;28;20228;-76
2023/01/03 10:07:50;;;;;;;3.30;3.00;;;;;;;12.46;53.88;99243.13;8283546;28;20231;-74
2023/01/03 10:12:01;;;;;;;3.30;2.97;;;;;;;12.54;53.51;99243.72;8283168;28;20230;-75
2023/01/03 10:16:09;;;;;;;3.00;2.30;;;;;;;12.66;53.34;99247.66;8283324;28;20234;-74
2023/01/03 10:20:22;;;;;;;2.60;2.40;;;;;;;12.62;53.21;99243.47;8283009;28;20223;-74
2023/01/03 10:24:38;;;;;;;2.43;2.23;;;;;;;12.64;53.69;99247.75;8282887;28;20235;-76
2023/01/03 10:28:44;;;;;;;2.70;2.23;;;;;;;12.55;54.12;99247.19;8281718;28;20239;-72
2023/01/03 10:33:13;;;;;;;2.67;2.47;;;;;;;12.81;53.20;99233.31;8282760;28;20515;-75
2023/01/03 10:37:18;;;;;;;3.67;2.60;;;;;;;12.91;52.74;99232.13;8282447;28;20244;-75
2023/01/03 10:41:23;;;;;;;3.97;2.93;;;;;;;12.88;53.67;99229.63;8282277;28;20316;-75
2023/01/03 10:45:27;;;;;;;3.60;3.30;;;;;;;12.94;53.58;99221.63;8281993;28;20452;-74
2023/01/03 10:49:30;;;;;;;3.40;3.20;;;;;;;12.96;53.91;99225.00;8282281;28;20223;-74
2023/01/03 10:53:39;;;;;;;3.73;3.37;;;;;;;12.97;53.56;99218.09;8282175;28;20232;-74
2023/01/03 10:57:45;;;;;;;4.47;3.80;;;;;;;12.87;53.71;99209.72;8281352;28;20234;-73
2023/01/03 11:02:01;;;;;;;4.17;3.77;;;;;;;13.05;53.34;99219.50;8281988;28;20242;-74
2023/01/03 11:06:09;;;;;;;4.10;3.30;;;;;;;13.00;53.02;99213.59;8281568;28;20231;-77
2023/01/03 11:10:16;;;;;;;3.43;3.13;;;;;;;13.24;52.10;99211.06;8281978;28;20228;-76
2023/01/03 11:14:22;;;;;;;2.90;2.60;;;;;;;13.41;51.92;99211.34;8281490;28;20555;-77
2023/01/03 11:18:29;;;;;;;2.80;2.50;;;;;;;13.51;51.48;99214.44;8281193;28;20242;-76
2023/01/03 11:22:36;;;;;;;3.60;2.40;;;;;;;13.65;51.46;99204.41;8283516;28;20228;-77
2023/01/03 11:26:44;;;;;;;2.53;2.27;;;;;;;13.57;50.73;99200.38;8282026;28;20238;-78
2023/01/03 11:30:52;;;;;;;2.43;2.23;;;;;;;13.62;50.77;99201.06;8273261;28;20233;-77
2023/01/03 11:35:14;;;;;;;1.93;1.83;;;;;;;13.90;50.36;99203.47;8281470;28;20528;-77
2023/01/03 11:39:36;;;;;;;3.40;2.60;;;;;;;13.87;49.60;99200.97;8286211;28;20525;-76
2023/01/03 11:43:50;;;;;;;3.10;2.70;;;;;;;13.68;49.90;99209.47;8287963;28;20228;-78
2023/01/03 11:48:02;;;;;;;3.63;2.00;;;;;;;13.59;49.56;99202.00;8287530;28;20249;-77
2023/01/03 11:52:19;;;;;;;2.50;1.90;;;;;;;13.36;49.93;99197.63;8287727;28;20226;-78
2023/01/03 11:56:27;;;;;;;1.87;1.77;;;;;;;13.30;49.42;99195.25;8287440;28;20302;-78
2023/01/03 12:00:34;;;;;;;2.43;1.97;;;;;;;13.29;49.96;99204.78;8287667;28;20254;-78
2023/01/03 12:04:43;;;;;;;2.13;1.90;;;;;;;13.34;49.80;99206.41;8287581;28;20238;-78
2023/01/03 12:08:58;;;;;;;2.10;1.90;;;;;;;13.47;49.80;99213.72;8286651;28;20237;-78
2023/01/03 12:13:16;;;;;;;1.63;1.47;;;;;;;13.43;50.15;99201.72;8287263;28;20252;-78
2023/01/03 12:17:24;;;;;;;2.40;1.83;;;;;;;13.21;50.62;99199.03;8286980;28;20243;-78
2023/01/03 12:21:33;;;;;;;23.80;17.80;;;;;;;15.13;65.31;99202.84;8286618;28;20234;-79
2023/01/03 12:25:39;;;;;;;10.80;8.43;;;;;;;15.51;56.40;99193.34;8286731;28;20227;-77
2023/01/03 12:29:51;;;;;;;3.50;3.20;;;;;;;15.87;50.63;99186.53;8285838;28;20231;-77
2023/01/03 12:34:02;;;;;;;2.23;1.70;;;;;;;14.52;47.54;99186.25;8286564;28;20266;-76
2023/01/03 12:38:06;;;;;;;1.67;1.53;;;;;;;14.13;48.24;99179.13;8286387;28;20418;-76
2023/01/03 12:42:17;;;;;;;2.20;1.90;;;;;;;14.16;47.77;99172.94;8286774;28;20247;-77
2023/01/03 12:46:22;;;;;;;1.90;1.47;;;;;;;14.00;47.98;99177.91;8286366;28;20243;-77
2023/01/03 12:50:29;;;;;;;1.33;1.23;;;;;;;14.05;47.64;99173.34;8285155;28;20346;-77
2023/01/03 12:54:38;;;;;;;2.37;1.30;;;;;;;13.98;46.75;99169.31;8285967;28;20223;-78
2023/01/03 12:58:50;;;;;;;2.37;1.30;;;;;;;13.93;47.24;99174.69;8285192;28;20255;-74
2023/01/03 13:02:54;;;;;;;1.50;1.40;;;;;;;13.84;46.98;99169.84;8285894;28;20234;-78
2023/01/03 13:07:03;;;;;;;1.27;1.17;;;;;;;13.76;46.81;99164.06;8285972;28;20426;-79
2023/01/03 13:11:15;;;;;;;2.87;1.43;;;;;;;13.58;47.56;99137.00;8285473;28;20231;-79
2023/01/03 13:15:28;;;;;;;2.20;1.60;;;;;;;13.46;47.03;99149.56;8285202;28;20245;-79
2023/01/03 13:19:54;;;;;;;2.37;1.47;;;;;;;13.75;46.43;99159.78;8284923;28;20242;-79
2023/01/03 13:23:58;;;;;;;2.77;1.70;;;;;;;13.89;46.71;99150.53;8278705;28;20237;-80
2023/01/03 13:28:05;;;;;;;2.43;2.00;;;;;;;13.94;46.84;99149.53;8285186;28;20411;-79
2023/01/03 13:32:17;;;;;;;3.30;1.70;;;;;;;13.80;46.34;99139.63;8285081;28;20230;-76
2023/01/03 13:36:20;;;;;;;4.00;1.90;;;;;;;13.46;47.62;99153.91;8284415;28;20237;-77
2023/01/03 13:40:24;;;;;;;3.67;2.07;;;;;;;13.28;48.21;99158.00;8284572;28;20243;-77
2023/01/03 13:44:47;;;;;;;2.90;2.50;;;;;;;13.04;48.63;99151.94;8283640;28;20309;-77
2023/01/03 13:48:56;;;;;;;3.23;2.23;;;;;;;12.88;49.58;99144.69;8284126;28;20230;-76
2023/01/03 13:53:02;;;;;;;2.67;2.30;;;;;;;12.79;50.37;99155.38;8284120;28;20234;-77
2023/01/03 13:57:21;;;;;;;2.47;1.93;;;;;;;12.98;49.60;99144.34;8283572;28;20240;-76
2023/01/03 14:01:32;;;;;;;2.17;1.97;;;;;;;12.96;49.55;99141.81;8282738;28;20242;-75
2023/01/03 14:05:53;;;;;;;2.60;2.40;;;;;;;13.25;48.82;99145.97;8283613;28;20488;-75
2023/01/03 14:10:05;;;;;;;3.13;2.93;;;;;;;13.58;47.96;99148.25;8283096;28;20229;-78
2023/01/03 14:14:11;;;;;;;2.50;2.30;;;;;;;13.82;47.46;99156.03;8283361;28;20239;-76
2023/01/03 14:18:19;;;;;;;3.87;3.00;;;;;;;13.78;47.46;99155.28;8283301;28;20231;-78
2023/01/03 14:22:27;;;;;;;3.40;2.20;;;;;;;13.91;47.87;99153.06;8282908;28;20236;-77
2023/01/03 14:26:34;;;;;;;2.43;2.00;;;;;;;13.92;46.71;99148.69;8282421;28;20428;-78
2023/01/03 14:30:37;;;;;;;2.50;2.30;;;;;;;14.04;46.78;99156.03;8282977;28;20340;-76
2023/01/03 14:34:41;;;;;;;3.30;2.47;;;;;;;14.05;46.40;99150.78;8282670;28;20234;-77
2023/01/03 14:38:49;;;;;;;3.23;1.93;;;;;;;13.76;46.86;99151.91;8281738;28;20261;-78
2023/01/03 14:42:52;;;;;;;2.10;1.90;;;;;;;13.86;47.65;99163.69;8282398;28;20241;-77
2023/01/03 14:46:56;;;;;;;3.90;2.50;;;;;;;13.77;46.92;99158.81;8282500;28;20526;-77
2023/01/03 14:51:01;;;;;;;3.90;2.37;;;;;;;13.71;47.60;99168.59;8282473;28;20234;-76
2023/01/03 14:55:08;;;;;;;3.23;2.27;;;;;;;13.29;49.07;99170.97;8282433;28;20420;-79
2023/01/03 14:59:13;;;;;;;2.92;2.63;;;;;;;13.73;47.67;99170.25;8281803;28;20406;-73
2023/01/03 15:03:17;;;;;;;3.17;2.63;;;;;;;13.09;49.53;99166.47;8282827;28;20246;-73
2023/01/03 15:07:32;;;;;;;2.33;2.13;;;;;;;12.96;49.45;99169.56;8282491;28;20292;-75
2023/01/03 15:11:54;;;;;;;3.13;2.70;;;;;;;12.66;50.13;99156.72;8281809;28;20233;-76
2023/01/03 15:16:02;;;;;;;3.43;2.30;;;;;;;12.54;50.61;99160.56;8282018;28;20494;-75
2023/01/03 15:20:09;;;;;;;3.33;3.03;;;;;;;12.54;51.13;99165.78;8281181;28;20544;-75
2023/01/03 15:24:14;;;;;;;6.00;4.70;;;;;;;12.54;50.87;99180.53;8281636;28;20229;-74
2023/01/03 15:28:27;;;;;;;5.80;4.67;;;;;;;12.22;51.24;99165.09;8281231;28;20227;-75
2023/01/03 15:32:29;;;;;;;5.47;4.00;;;;;;;12.19;51.69;99178.16;8281211;28;20235;-75
2023/01/03 15:36:32;;;;;;;8.33;7.30;;;;;;;12.13;51.70;99181.81;8281182;28;20430;-75
2023/01/03 15:40:36;;;;;;;7.40;6.10;;;;;;;11.77;52.48;99144.81;8281641;28;20561;-75
2023/01/03 15:44:40;;;;;;;7.80;7.00;;;;;;;11.98;52.53;99189.22;8281455;28;20236;-75
2023/01/03 15:48:50;;;;;;;8.50;6.73;;;;;;;11.92;52.17;99204.09;8280716;28;20226;-75
2023/01/03 15:52:53;;;;;;;7.50;6.60;;;;;;;11.70;52.89;99198.63;8280483;28;20232;-75
2023/01/03 15:57:02;;;;;;;7.10;5.90;;;;;;;11.62;52.79;99208.41;8280818;28;20235;-76
2023/01/03 16:01:06;;;;;;;9.67;7.37;;;;;;;11.49;53.37;99207.88;8280738;28;20234;-79
2023/01/03 16:05:13;;;;;;;10.90;8.60;;;;;;;11.47;54.00;99206.25;8282177;28;20411;-77
2023/01/03 16:09:23;;;;;;;9.63;7.30;;;;;;;11.24;53.67;99214.66;8280802;28;20346;-77
2023/01/03 16:13:28;;;;;;;8.57;7.67;;;;;;;11.27;53.81;99222.34;8281306;28;20515;-76
2023/01/03 16:17:32;;;;;;;7.43;6.63;;;;;;;11.15;53.89;99211.41;8280806;28;20223;-76
2023/01/03 16:21:35;;;;;;;7.13;5.80;;;;;;;10.99;54.02;99217.06;8280704;28;20239;-76
2023/01/03 16:25:38;;;;;;;5.13;4.57;;;;;;;11.11;54.00;99224.50;8284715;28;20234;-79
2023/01/03 16:29:41;;;;;;;5.77;3.67;;;;;;;11.03;54.21;99236.81;8286322;28;20233;-76
2023/01/03 16:33:47;;;;;;;5.17;3.40;;;;;;;10.93;55.02;99234.47;8286486;28;20225;-79
2023/01/03 16:37:50;;;;;;;3.10;2.90;;;;;;;11.06;54.27;99244.50;8286552;28;20231;-78
2023/01/03 16:46:16;;;;;;;5.70;4.53;;;;;;;10.86;54.50;99247.63;8286425;28;20234;-78
2023/01/03 16:50:21;;;;;;;5.20;4.70;;;;;;;10.85;54.63;99238.13;8286053;28;20531;-79
2023/01/03 16:54:24;;;;;;;8.47;4.93;;;;;;;10.89;54.66;99244.94;8287034;28;20593;-80
2023/01/03 16:58:26;;;;;;;7.90;6.13;;;;;;;10.86;54.60;99237.25;8286393;28;20227;-81
2023/01/03 17:02:29;;;;;;;13.83;12.20;;;;;;;10.78;54.59;99240.03;8286428;28;20231;-80
2023/01/03 17:06:34;;;;;;;18.30;14.70;;;;;;;10.74;54.98;99244.44;8286860;28;20311;-79
2023/01/03 17:10:42;;;;;;;16.93;12.73;;;;;;;10.74;54.72;99253.97;8286844;28;20253;-80
2023/01/03 17:14:44;;;;;;;9.53;7.60;;;;;;;10.67;54.23;99242.88;8286508;28;20239;-80
2023/01/03 17:18:48;;;;;;;12.83;9.47;;;;;;;10.49;54.56;99245.91;8286024;28;20246;-79
2023/01/03 17:22:54;;;;;;;12.07;9.67;;;;;;;10.42;54.10;99241.78;8290165;28;20234;-81
2023/01/03 17:27:02;;;;;;;17.10;11.87;;;;;;;10.54;54.52;99250.09;8286269;28;20428;-83
2023/01/03 17:31:05;;;;;;;13.13;10.00;;;;;;;10.47;54.39;99253.72;8287348;28;20234;-84
2023/01/03 17:35:12;;;;;;;12.37;10.00;;;;;;;10.46;54.84;99246.84;8285820;28;20234;-81
2023/01/03 17:39:17;;;;;;;12.57;9.40;;;;;;;10.60;54.63;99254.28;8287534;28;20253;-80
2023/01/03 17:43:22;;;;;;;10.97;9.37;;;;;;;10.59;55.10;99256.91;8286303;28;20238;-81
2023/01/03 17:51:46;;;;;;;12.50;9.53;;;;;;;10.37;55.64;99262.59;8285097;28;20238;-82
2023/01/03 17:55:50;;;;;;;14.00;10.93;;;;;;;10.34;55.45;99255.75;8286246;28;20415;-82
2023/01/03 17:59:53;;;;;;;22.27;15.47;;;;;;;10.60;55.01;99250.84;8289355;28;20235;-85
2023/01/03 18:03:56;;;;;;;26.97;21.13;;;;;;;10.31;54.97;99214.38;8287105;28;20240;-80
2023/01/03 18:08:00;;;;;;;24.27;19.60;;;;;;;10.50;55.28;99242.44;8290738;28;20231;-84
2023/01/03 18:12:05;;;;;;;25.73;20.57;;;;;;;10.40;55.11;99249.56;8287476;28;20238;-82
2023/01/03 18:16:14;;;;;;;24.87;20.20;;;;;;;10.40;55.47;99244.41;8289389;28;20239;-81
2023/01/03 18:20:18;;;;;;;21.87;18.70;;;;;;;10.50;55.43;99250.22;8286179;28;20289;-80
2023/01/03 18:24:23;;;;;;;25.03;20.17;;;;;;;10.42;55.97;99255.56;8285771;28;20236;-83
2023/01/03 18:28:28;;;;;;;24.23;18.47;;;;;;;10.51;55.38;99250.19;8288071;28;20222;-84
2023/01/03 18:32:34;;;;;;;25.83;19.13;;;;;;;10.67;55.67;99255.84;8286250;28;20223;-84
2023/01/03 18:36:39;;;;;;;24.40;19.07;;;;;;;10.65;55.51;99255.03;8287170;28;20219;-80
2023/01/03 18:40:42;;;;;;;23.60;17.17;;;;;;;10.74;55.18;99249.63;8285350;28;20298;-80
2023/01/03 18:44:47;;;;;;;25.60;18.30;;;;;;;10.75;55.33;99250.47;8284924;28;20239;-82
2023/01/03 18:48:49;;;;;;;28.43;19.50;;;;;;;10.77;55.34;99253.88;8283939;28;20227;-83
2023/01/03 18:52:53;;;;;;;22.20;17.00;;;;;;;10.78;55.25;99241.78;8284017;28;20235;-83
2023/01/03 18:56:56;;;;;;;19.47;15.63;;;;;;;10.73;54.72;99229.75;8283344;28;20531;-86
2023/01/03 19:01:01;;;;;;;16.90;13.73;;;;;;;10.58;55.67;99240.50;8282969;28;20235;-80
2023/01/03 19:05:04;;;;;;;13.10;11.67;;;;;;;10.72;54.74;99237.59;8283344;28;20223;-85
2023/01/03 19:09:10;;;;;;;17.60;15.23;;;;;;;10.69;55.11;99241.09;8282882;28;20234;-84
2023/01/03 19:13:23;;;;;;;21.00;17.53;;;;;;;10.67;55.01;99229.94;8283637;28;20230;-83
2023/01/03 19:17:27;;;;;;;18.97;16.83;;;;;;;10.62;55.48;99234.34;8282926;28;20234;-84
2023/01/03 19:21:32;;;;;;;20.43;15.33;;;;;;;10.44;55.54;99224.47;8282293;28;20234;-84
2023/01/03 19:25:35;;;;;;;23.13;17.43;;;;;;;10.49;55.50;99226.06;8282267;28;20231;-86
2023/01/03 19:29:38;;;;;;;42.67;23.77;;;;;;;12.78;71.70;99234.28;8281811;28;20429;-79
2023/01/03 19:33:42;;;;;;;21.43;15.33;;;;;;;13.35;54.77;99221.97;8280742;28;20376;-75
2023/01/03 19:37:46;;;;;;;21.37;12.50;;;;;;;13.70;52.18;99222.44;8281240;28;20587;-78
2023/01/03 19:46:14;;;;;;;18.93;13.97;;;;;;;13.82;47.96;99216.78;8281328;28;20240;-86
2023/01/03 19:50:20;;;;;;;19.93;14.10;;;;;;;12.35;50.64;99219.22;8281642;28;20297;-83
2023/01/03 19:54:24;;;;;;;19.60;14.70;;;;;;;11.94;51.88;99230.00;8281578;28;20238;-83
2023/01/03 19:58:28;;;;;;;17.20;13.10;;;;;;;11.60;52.63;99227.50;8283235;28;20229;-82
2023/01/03 20:02:35;;;;;;;16.43;12.97;;;;;;;11.55;51.79;99215.47;8288024;28;20236;-82
2023/01/03 20:06:40;;;;;;;17.10;13.57;;;;;;;10.97;52.92;99173.03;8287569;28;20626;-81
2023/01/03 20:10:43;;;;;;;18.43;15.70;;;;;;;10.91;54.19;99228.47;8273007;28;20224;-81
2023/01/03 20:14:50;;;;;;;17.67;15.10;;;;;;;10.69;54.01;99215.19;8287660;28;20228;-81
2023/01/03 20:18:53;;;;;;;17.83;13.50;;;;;;;10.29;55.62;99221.28;8287426;28;20411;-81
2023/01/03 20:23:00;;;;;;;18.23;15.37;;;;;;;10.56;55.17;99229.34;8268380;28;20306;-83
2023/01/03 20:27:11;;;;;;;21.20;18.87;;;;;;;10.46;55.04;99230.44;8267154;28;20230;-81
2023/01/03 20:31:14;;;;;;;12.70;11.40;;;;;;;10.32;55.09;99218.69;8280580;28;20227;-82
2023/01/03 20:35:24;;;;;;;14.87;11.23;;;;;;;10.16;55.34;99210.34;8281607;28;20269;-82
2023/01/03 20:39:48;;;;;;;22.63;20.17;;;;;;;10.36;54.67;99214.28;8286095;28;20326;-82